ESOK/KSD METAR and TAF weather

Enter ICAO airport designator
Station Type Date Time Source
ESOK METAR 2021/06/22 22:20 UTC NOAA

ESOK 222220Z AUTO 01006KT 2200 DZ FEW003/// SCT005/// BKN007/// 12/12 Q1015


Station Type Date Time Source
ESOK Decoded METAR 2021/06/22 22:20 UTC NOAA

Karlstad , Sweden (ESOK) 59-26-41N 013-20-15E
Jun 22, 2021 - 06:20 PM EDT / 2021.06.22 2220 UTC
Wind: from the N (010 degrees) at 7 MPH (6 KT):0
Visibility: 1 mile(s):0
Sky conditions: mostly cloudy
Weather: drizzle
Temperature: 53 F (12 C)
Dew Point: 53 F (12 C)
Relative Humidity: 100%
Pressure (altimeter): 29.97 in. Hg (1015 hPa)
ob: ESOK 222220Z AUTO 01006KT 2200 DZ FEW003/// SCT005/// BKN007/// 12/12 Q1015
cycle: 22

Station Type Date Time Source
ESOK TAF 2017/05/22 06:33 UTC NOAA

TAF ESOK 220530Z 2206/2224 28006KT CAVOK

Example: see airport list